Time;durP1;ratioP1;P1;durP2;ratioP2;P2;SDS_P1;SDS_P2;PMS_P1;PMS_P2;Temp;Humidity;BMP_temperature;BMP_pressure;BME280_temperature;BME280_humidity;BME280_pressure;Samples;Min_cycle;Max_cycle;Signal;HPM_P1;HPM_P2
2021/03/16 00:00:39;;;;;;;14.63;5.07;;;4.50;93.80;;;;;;4864065;29;20073;-83
2021/03/16 00:06:28;;;;;;;25.33;6.60;;;4.60;94.30;;;;;;4863930;29;20076;-83
2021/03/16 00:12:16;;;;;;;10.73;3.95;;;4.60;94.20;;;;;;4863678;29;20451;-84
2021/03/16 00:18:07;;;;;;;23.52;7.32;;;4.70;94.30;;;;;;4863642;29;20072;-82
2021/03/16 00:23:56;;;;;;;32.15;7.78;;;4.70;94.30;;;;;;4863370;29;20031;-83
2021/03/16 00:29:44;;;;;;;6.55;2.47;;;4.80;94.20;;;;;;4863506;29;20391;-83
2021/03/16 00:35:33;;;;;;;12.65;4.78;;;4.80;94.30;;;;;;4863662;29;20092;-84
2021/03/16 00:41:21;;;;;;;28.40;7.63;;;4.90;94.30;;;;;;4863424;29;20055;-83
2021/03/16 00:47:10;;;;;;;26.27;7.47;;;4.90;94.30;;;;;;4863084;29;20562;-83
2021/03/16 00:56:53;;;;;;;14.60;5.63;;;5.00;94.30;;;;;;4862667;29;20060;-83
2021/03/16 01:02:41;;;;;;;22.02;7.35;;;5.00;94.30;;;;;;4862597;29;20567;-83
2021/03/16 01:08:29;;;;;;;38.80;9.25;;;4.90;94.20;;;;;;4862707;29;20032;-83
2021/03/16 01:14:18;;;;;;;41.45;9.25;;;5.00;94.30;;;;;;4862814;29;20076;-83
2021/03/16 01:20:15;;;;;;;16.75;5.20;;;5.00;94.20;;;;;;4862699;29;20072;-85
2021/03/16 01:26:05;;;;;;;23.45;5.93;;;5.10;94.20;;;;;;4862319;29;20394;-84
2021/03/16 01:31:53;;;;;;;15.77;4.13;;;5.10;94.20;;;;;;4862549;29;20062;-84
2021/03/16 01:37:42;;;;;;;24.48;5.55;;;5.10;94.20;;;;;;4862011;29;20052;-82
2021/03/16 01:43:32;;;;;;;10.40;3.03;;;5.10;94.20;;;;;;4861996;29;20029;-83
2021/03/16 01:49:21;;;;;;;20.27;5.75;;;5.20;94.20;;;;;;4862196;29;20048;-82
2021/03/16 01:59:03;;;;;;;40.13;6.97;;;5.10;94.10;;;;;;4862167;29;20467;-83
2021/03/16 02:04:52;;;;;;;8.43;3.45;;;5.10;94.20;;;;;;4862196;29;20090;-82
2021/03/16 02:10:52;;;;;;;13.25;4.93;;;5.10;94.20;;;;;;4861945;29;20052;-83
2021/03/16 02:17:10;;;;;;;14.07;3.53;;;5.10;94.10;;;;;;4861742;29;20128;-83
2021/03/16 02:23:02;;;;;;;20.35;5.65;;;5.10;94.20;;;;;;4861704;29;20066;-83
2021/03/16 02:29:14;;;;;;;9.20;3.42;;;5.20;94.10;;;;;;4861577;29;20509;-83
2021/03/16 02:35:05;;;;;;;13.82;5.13;;;5.20;94.10;;;;;;4861204;29;20033;-83
2021/03/16 02:40:55;;;;;;;9.82;3.85;;;5.10;94.10;;;;;;4861493;29;20116;-83
2021/03/16 02:46:48;;;;;;;6.43;2.58;;;5.10;94.10;;;;;;4861375;29;20478;-83
2021/03/16 02:52:37;;;;;;;11.45;2.70;;;5.10;93.90;;;;;;4861142;29;20378;-83
2021/03/16 03:02:29;;;;;;;10.38;4.10;;;5.00;93.90;;;;;;4861060;29;20112;-83
2021/03/16 03:08:20;;;;;;;32.17;7.53;;;4.90;94.00;;;;;;4860969;29;20056;-83
2021/03/16 03:14:09;;;;;;;23.48;6.38;;;4.90;94.20;;;;;;4861197;29;20033;-85
2021/03/16 03:19:59;;;;;;;26.58;7.40;;;4.90;94.00;;;;;;4860955;29;20035;-85
2021/03/16 03:26:00;;;;;;;25.98;6.50;;;5.00;94.20;;;;;;4861358;29;20123;-83
2021/03/16 03:32:13;;;;;;;24.48;6.40;;;5.00;94.00;;;;;;4864498;29;20053;-83
2021/03/16 03:38:03;;;;;;;10.80;4.22;;;4.90;94.10;;;;;;4864273;29;20053;-84
2021/03/16 03:43:53;;;;;;;11.55;3.53;;;4.90;94.10;;;;;;4863970;29;20131;-83
2021/03/16 03:49:42;;;;;;;23.33;5.00;;;4.90;94.20;;;;;;4864049;29;20098;-85
2021/03/16 03:55:32;;;;;;;22.58;5.60;;;4.90;94.10;;;;;;4863787;29;20076;-85
2021/03/16 04:05:23;;;;;;;15.38;5.00;;;4.80;94.00;;;;;;4863893;29;20041;-85
2021/03/16 04:11:12;;;;;;;11.13;2.78;;;4.80;94.00;;;;;;4863715;29;20077;-85
2021/03/16 04:17:01;;;;;;;4.13;1.83;;;4.70;94.00;;;;;;4863546;29;20065;-85
2021/03/16 04:22:51;;;;;;;13.68;3.65;;;4.70;94.00;;;;;;4863819;29;20036;-84
2021/03/16 04:28:39;;;;;;;18.98;4.40;;;4.60;94.00;;;;;;4863638;29;20043;-84
2021/03/16 04:34:28;;;;;;;6.32;2.47;;;4.60;94.10;;;;;;4863257;29;20081;-84
2021/03/16 04:40:16;;;;;;;15.50;5.25;;;4.60;94.10;;;;;;4863234;29;20136;-85
2021/03/16 04:46:06;;;;;;;18.52;6.00;;;4.70;94.10;;;;;;4864635;29;20044;-84
2021/03/16 04:51:54;;;;;;;23.92;5.22;;;4.70;94.20;;;;;;4863003;29;20144;-84
2021/03/16 04:57:43;;;;;;;15.48;4.82;;;4.70;94.20;;;;;;4862979;29;20064;-84
2021/03/16 05:07:25;;;;;;;12.98;3.60;;;4.60;94.00;;;;;;4862774;29;20577;-84
2021/03/16 05:13:14;;;;;;;11.15;3.58;;;4.60;94.10;;;;;;4862446;29;20028;-84
2021/03/16 05:19:02;;;;;;;20.80;4.97;;;4.60;94.20;;;;;;4862322;29;20101;-83
2021/03/16 05:24:51;;;;;;;9.50;2.40;;;4.70;94.20;;;;;;4862447;29;20037;-82
2021/03/16 05:30:39;;;;;;;47.80;15.27;;;4.60;94.00;;;;;;4862162;29;20566;-84
2021/03/16 05:36:28;;;;;;;13.13;4.45;;;4.60;94.20;;;;;;4862169;29;20052;-84
2021/03/16 05:42:17;;;;;;;7.07;2.35;;;4.70;94.20;;;;;;4861755;29;20108;-84
2021/03/16 05:48:09;;;;;;;21.13;4.88;;;4.70;94.10;;;;;;4861945;29;20033;-83
2021/03/16 05:53:57;;;;;;;14.80;4.40;;;4.70;94.10;;;;;;4861864;29;20093;-84
2021/03/16 05:59:48;;;;;;;29.48;5.88;;;4.70;94.20;;;;;;4862088;29;20065;-84
2021/03/16 06:09:30;;;;;;;16.70;4.78;;;4.90;94.30;;;;;;4861949;29;20040;-84
2021/03/16 06:15:21;;;;;;;11.50;3.92;;;4.90;94.20;;;;;;4861692;29;20482;-85
2021/03/16 06:21:11;;;;;;;22.63;5.53;;;5.00;94.20;;;;;;4861394;29;20049;-82
2021/03/16 06:27:00;;;;;;;30.83;7.68;;;5.00;94.30;;;;;;4861765;29;20435;-85
2021/03/16 06:32:49;;;;;;;9.70;3.55;;;5.20;94.40;;;;;;4866197;29;20456;-86
2021/03/16 06:38:38;;;;;;;23.52;5.45;;;5.30;94.20;;;;;;4861636;29;20074;-85
2021/03/16 06:44:27;;;;;;;10.73;2.72;;;5.30;93.90;;;;;;4861421;29;20063;-82
2021/03/16 06:50:15;;;;;;;17.73;4.72;;;5.40;94.20;;;;;;4861392;29;20044;-83
2021/03/16 06:56:04;;;;;;;15.77;3.92;;;5.30;93.90;;;;;;4861170;29;20052;-82
2021/03/16 07:01:52;;;;;;;16.00;3.97;;;5.20;93.90;;;;;;4860980;29;20166;-83
2021/03/16 07:11:39;;;;;;;8.18;2.50;;;5.20;94.10;;;;;;4864660;29;20116;-83
2021/03/16 07:17:32;;;;;;;17.80;4.20;;;5.30;94.10;;;;;;4864356;29;20085;-86
2021/03/16 07:23:23;;;;;;;10.98;4.28;;;5.40;94.20;;;;;;4864437;29;20143;-86
2021/03/16 07:29:12;;;;;;;8.15;3.15;;;5.50;94.10;;;;;;4864469;29;20113;-84
2021/03/16 07:35:01;;;;;;;17.90;5.38;;;5.70;94.30;;;;;;4864231;29;20041;-85
2021/03/16 07:40:52;;;;;;;7.82;2.92;;;5.90;94.30;;;;;;4864140;29;20033;-85
2021/03/16 07:46:46;;;;;;;15.10;3.92;;;6.10;94.40;;;;;;4845742;29;20506;-85
2021/03/16 07:52:46;;;;;;;11.75;4.80;;;6.40;94.50;;;;;;4845460;29;20091;-85
2021/03/16 07:58:45;;;;;;;11.82;4.53;;;6.40;94.00;;;;;;4845511;29;20452;-85
2021/03/16 08:04:40;;;;;;;10.27;3.65;;;6.50;94.10;;;;;;4845449;29;20044;-86
2021/03/16 08:14:31;;;;;;;8.52;3.50;;;6.90;94.40;;;;;;4845310;29;20502;-84
2021/03/16 08:20:26;;;;;;;12.20;3.67;;;6.90;93.70;;;;;;4845294;29;20052;-85
2021/03/16 08:26:16;;;;;;;12.57;2.92;;;7.10;94.00;;;;;;4844880;29;20032;-86
2021/03/16 08:32:05;;;;;;;7.65;2.60;;;7.10;93.70;;;;;;4845225;29;20158;-85
2021/03/16 08:37:53;;;;;;;8.60;3.25;;;7.10;93.70;;;;;;4845147;29;20141;-83
2021/03/16 08:43:47;;;;;;;8.30;3.00;;;7.10;93.80;;;;;;4844578;29;20036;-83
2021/03/16 08:49:41;;;;;;;10.57;3.05;;;7.20;93.60;;;;;;4844446;29;20563;-84
2021/03/16 08:55:30;;;;;;;7.35;2.50;;;7.40;94.10;;;;;;4844543;29;20044;-89
2021/03/16 09:01:29;;;;;;;7.65;2.25;;;7.80;94.20;;;;;;4844166;29;20117;-87
2021/03/16 09:07:30;;;;;;;10.73;2.78;;;8.00;93.70;;;;;;4844067;29;20033;-84
2021/03/16 09:17:21;;;;;;;11.23;2.72;;;8.20;93.60;;;;;;4844329;29;20113;-86
2021/03/16 09:23:13;;;;;;;14.05;3.30;;;8.30;93.90;;;;;;4843945;29;20040;-84
2021/03/16 09:29:02;;;;;;;7.70;2.45;;;8.20;93.60;;;;;;4843725;29;20482;-88
2021/03/16 09:34:50;;;;;;;7.10;2.40;;;8.30;94.10;;;;;;4847656;29;20077;-89
2021/03/16 09:40:44;;;;;;;3.67;1.90;;;8.80;94.00;;;;;;4844769;29;20162;-85
2021/03/16 09:46:33;;;;;;;2.70;1.23;;;8.30;92.80;;;;;;4849195;29;20033;-90
2021/03/16 09:52:24;;;;;;;14.75;3.58;;;8.00;93.00;;;;;;4843739;29;20037;-84
2021/03/16 09:58:25;;;;;;;9.23;3.00;;;7.60;93.20;;;;;;4852020;29;20049;-87
2021/03/16 10:04:15;;;;;;;9.93;3.42;;;7.90;94.10;;;;;;4843649;29;20137;-87
2021/03/16 10:10:13;;;;;;;8.57;1.83;;;8.20;93.70;;;;;;4843149;29;20273;-87
2021/03/16 10:20:06;;;;;;;2.72;1.63;;;8.80;94.40;;;;;;4843386;29;20114;-87
2021/03/16 10:25:57;;;;;;;10.50;2.65;;;8.70;93.40;;;;;;4843145;29;20044;-87
2021/03/16 10:31:45;;;;;;;7.65;2.47;;;8.30;93.20;;;;;;4843028;29;20519;-87
2021/03/16 10:37:45;;;;;;;4.32;1.52;;;8.40;93.90;;;;;;4842813;29;20045;-87
2021/03/16 10:43:33;;;;;;;7.93;2.30;;;8.80;94.30;;;;;;4846669;29;20166;-87
2021/03/16 10:49:22;;;;;;;11.25;2.90;;;9.40;94.80;;;;;;4847044;29;20036;-87
2021/03/16 10:55:11;;;;;;;4.93;2.08;;;9.90;93.70;;;;;;4846591;29;20078;-87
2021/03/16 11:01:00;;;;;;;4.95;1.85;;;9.40;92.70;;;;;;4846613;29;20098;-86
2021/03/16 11:06:48;;;;;;;6.57;2.42;;;9.30;93.40;;;;;;4846172;29;20040;-86
2021/03/16 11:12:37;;;;;;;4.88;1.77;;;9.50;93.30;;;;;;4846013;29;20077;-87
2021/03/16 11:22:26;;;;;;;4.93;2.00;;;10.40;94.90;;;;;;4846115;29;20455;-88
2021/03/16 11:28:15;;;;;;;6.10;2.13;;;11.20;93.40;;;;;;4846267;29;20040;-88
2021/03/16 11:34:04;;;;;;;5.35;2.00;;;11.00;93.20;;;;;;4846213;29;20085;-91
2021/03/16 11:39:54;;;;;;;8.10;2.17;;;10.50;92.80;;;;;;4846091;29;20121;-86
2021/03/16 11:45:43;;;;;;;8.00;2.20;;;10.40;93.20;;;;;;4845569;29;20122;-88
2021/03/16 11:51:31;;;;;;;3.53;1.98;;;10.60;93.70;;;;;;4846282;29;20060;-88
2021/03/16 11:57:20;;;;;;;3.75;1.63;;;10.70;93.30;;;;;;4845612;29;20053;-87
2021/03/16 12:03:08;;;;;;;2.80;1.13;;;10.80;93.20;;;;;;4845683;29;20081;-87
2021/03/16 12:08:57;;;;;;;9.38;1.90;;;10.50;92.60;;;;;;4850582;29;20041;-87
2021/03/16 12:14:45;;;;;;;1.80;1.42;;;10.30;93.00;;;;;;4846591;29;20493;-87
2021/03/16 12:24:30;;;;;;;2.88;1.65;;;10.40;93.90;;;;;;4847180;29;20049;-86
2021/03/16 12:30:19;;;;;;;1.95;1.55;;;10.60;92.90;;;;;;4847857;29;20429;-91
2021/03/16 12:36:09;;;;;;;12.68;3.38;;;9.80;91.60;;;;;;4852983;29;20109;-89
2021/03/16 12:41:58;;;;;;;10.40;3.47;;;9.20;92.10;;;;;;4846701;29;20497;-89
2021/03/16 12:47:47;;;;;;;8.40;2.88;;;9.00;93.10;;;;;;4854137;29;20040;-91
2021/03/16 12:53:35;;;;;;;3.55;1.63;;;8.90;93.10;;;;;;4849520;29;20090;-94
2021/03/16 12:59:25;;;;;;;3.40;1.58;;;8.90;93.30;;;;;;4846382;29;20414;-92
2021/03/16 13:05:13;;;;;;;5.20;1.23;;;8.80;93.30;;;;;;4845256;29;20395;-91
2021/03/16 13:11:02;;;;;;;9.10;2.50;;;8.60;92.70;;;;;;4844470;29;20136;-88
2021/03/16 13:16:51;;;;;;;5.35;1.80;;;8.40;92.90;;;;;;4846615;29;20048;-87
2021/03/16 13:26:34;;;;;;;10.48;2.28;;;8.60;93.60;;;;;;4849561;29;20120;-88
2021/03/16 13:32:22;;;;;;;3.60;1.70;;;8.70;93.60;;;;;;4852677;29;20089;-89
2021/03/16 13:38:12;;;;;;;9.07;2.58;;;8.70;93.30;;;;;;4846337;29;20053;-89
2021/03/16 13:44:00;;;;;;;6.60;2.33;;;8.80;93.40;;;;;;4845816;29;20077;-86
2021/03/16 13:49:51;;;;;;;2.80;1.15;;;8.80;92.80;;;;;;4848425;29;20059;-90
2021/03/16 13:55:39;;;;;;;5.88;1.80;;;9.00;93.60;;;;;;4847129;29;20039;-89
2021/03/16 14:01:28;;;;;;;8.57;2.35;;;8.90;93.20;;;;;;4848741;29;20086;-90
2021/03/16 14:07:16;;;;;;;5.30;1.55;;;9.00;93.20;;;;;;4846106;29;20074;-88
2021/03/16 14:13:05;;;;;;;3.92;1.65;;;8.70;92.60;;;;;;4843739;29;20045;-88
2021/03/16 14:18:53;;;;;;;4.60;1.90;;;8.60;92.90;;;;;;4843558;29;20045;-88
2021/03/16 14:28:36;;;;;;;4.43;1.85;;;8.80;93.30;;;;;;4843687;29;20124;-87
2021/03/16 14:34:25;;;;;;;5.72;1.63;;;9.30;94.10;;;;;;4846753;29;20586;-86
2021/03/16 14:40:13;;;;;;;4.88;2.13;;;9.70;93.30;;;;;;4844534;29;20085;-87
2021/03/16 14:46:01;;;;;;;8.48;2.33;;;9.50;92.50;;;;;;4843648;29;20121;-89
2021/03/16 14:51:49;;;;;;;5.82;2.30;;;9.90;93.50;;;;;;4843161;29;20099;-91
2021/03/16 14:57:37;;;;;;;6.53;1.85;;;11.50;94.90;;;;;;4842725;29;20042;-86
2021/03/16 15:03:26;;;;;;;7.35;1.83;;;11.60;91.60;;;;;;4842974;29;20033;-85
2021/03/16 15:09:14;;;;;;;10.15;2.67;;;11.30;92.00;;;;;;4842934;29;20057;-86
2021/03/16 15:15:05;;;;;;;8.35;3.10;;;11.80;92.90;;;;;;4842838;29;20498;-85
2021/03/16 15:20:53;;;;;;;11.77;3.10;;;11.40;92.30;;;;;;4842708;29;20040;-87
2021/03/16 15:30:36;;;;;;;4.57;1.73;;;10.50;92.00;;;;;;4846461;29;20521;-86
2021/03/16 15:36:24;;;;;;;12.63;3.35;;;10.90;94.10;;;;;;4846092;29;20460;-87
2021/03/16 15:42:14;;;;;;;12.65;2.47;;;12.30;94.30;;;;;;4845770;29;20033;-86
2021/03/16 15:48:02;;;;;;;6.70;1.80;;;11.60;90.50;;;;;;4846256;29;20045;-90
2021/03/16 15:53:55;;;;;;;3.03;1.45;;;10.30;90.80;;;;;;4848226;29;20036;-93
2021/03/16 16:00:09;;;;;;;11.27;2.75;;;9.40;91.90;;;;;;4848352;29;20045;-94
2021/03/16 16:05:58;;;;;;;5.68;2.05;;;10.50;95.10;;;;;;4847541;29;20045;-92
2021/03/16 16:11:48;;;;;;;12.93;3.30;;;11.80;93.80;;;;;;4848020;29;20094;-94
2021/03/16 16:17:38;;;;;;;6.32;2.38;;;12.10;92.50;;;;;;4846143;29;20048;-91
2021/03/16 16:23:26;;;;;;;11.73;3.15;;;11.90;92.50;;;;;;4846435;29;20041;-89
2021/03/16 16:33:40;;;;;;;6.47;2.53;;;11.30;91.60;;;;;;4844992;29;20117;-85
2021/03/16 16:39:30;;;;;;;8.32;3.08;;;10.80;91.80;;;;;;4844752;29;20072;-88
2021/03/16 16:45:18;;;;;;;9.30;2.95;;;9.70;90.30;;;;;;4845194;29;20045;-86
2021/03/16 16:51:07;;;;;;;8.50;2.88;;;8.60;91.10;;;;;;4846280;29;20066;-90
2021/03/16 16:56:55;;;;;;;12.95;5.43;;;8.00;91.60;;;;;;4844424;29;20114;-86
2021/03/16 17:02:43;;;;;;;10.70;4.60;;;7.80;92.10;;;;;;4844639;29;20037;-85
2021/03/16 17:08:32;;;;;;;14.20;4.78;;;7.50;92.20;;;;;;4846360;29;20408;-87
2021/03/16 17:14:20;;;;;;;14.02;5.30;;;7.30;92.70;;;;;;4844574;29;20045;-84
2021/03/16 17:20:12;;;;;;;18.92;6.53;;;7.10;92.50;;;;;;4844167;29;20555;-81
2021/03/16 17:26:00;;;;;;;14.20;4.68;;;6.90;92.60;;;;;;4843930;29;20049;-84
2021/03/16 17:36:02;;;;;;;11.90;4.13;;;6.60;92.70;;;;;;4843871;29;20112;-88
2021/03/16 17:41:54;;;;;;;16.60;5.38;;;6.30;92.60;;;;;;4844415;29;20061;-87
2021/03/16 17:53:56;;;;;;;10.15;3.97;;;6.30;93.20;;;;;;4863779;29;20045;-89
2021/03/16 17:59:44;;;;;;;8.50;3.72;;;6.20;93.20;;;;;;4865795;29;20105;-87
2021/03/16 18:05:33;;;;;;;7.90;2.95;;;6.20;93.30;;;;;;4870018;29;20092;-91
2021/03/16 18:11:23;;;;;;;15.30;4.60;;;6.20;93.30;;;;;;4868039;29;20358;-90
2021/03/16 18:17:12;;;;;;;12.60;5.18;;;6.20;93.50;;;;;;4866966;29;20101;-90
2021/03/16 18:23:00;;;;;;;12.38;4.88;;;6.30;93.70;;;;;;4864250;29;20378;-89
2021/03/16 18:28:49;;;;;;;13.60;4.53;;;6.30;93.50;;;;;;4864929;29;20036;-90
2021/03/16 18:34:36;;;;;;;9.32;4.00;;;6.20;93.40;;;;;;4862621;29;20081;-90
2021/03/16 18:40:25;;;;;;;12.35;4.68;;;6.30;93.60;;;;;;4861792;29;20031;-88
2021/03/16 18:46:16;;;;;;;14.45;4.53;;;6.30;93.40;;;;;;4863171;29;20035;-91
2021/03/16 18:56:08;;;;;;;10.30;3.97;;;6.20;93.40;;;;;;4862488;29;20074;-90
2021/03/16 19:01:56;;;;;;;10.82;4.07;;;6.10;93.50;;;;;;4865011;29;20044;-90
2021/03/16 19:07:45;;;;;;;12.38;4.20;;;6.10;93.40;;;;;;4867186;29;20129;-91
2021/03/16 19:13:33;;;;;;;39.10;16.67;;;6.10;93.70;;;;;;4866214;29;20037;-89
2021/03/16 19:19:23;;;;;;;16.20;5.20;;;6.10;93.50;;;;;;4865987;29;20025;-91
2021/03/16 19:25:13;;;;;;;13.07;4.30;;;5.80;92.90;;;;;;4868171;29;20043;-93
2021/03/16 19:31:02;;;;;;;7.50;2.58;;;5.50;93.10;;;;;;4867982;29;20124;-89
2021/03/16 19:36:54;;;;;;;5.53;2.08;;;5.30;93.00;;;;;;4868276;29;20520;-90
2021/03/16 19:42:44;;;;;;;10.40;2.83;;;5.20;93.20;;;;;;4870316;29;20041;-94
2021/03/16 19:48:34;;;;;;;12.02;3.38;;;5.20;93.30;;;;;;4865735;29;20589;-88
2021/03/16 19:58:24;;;;;;;11.43;3.20;;;5.10;93.20;;;;;;4874569;29;20529;-92
2021/03/16 20:04:15;;;;;;;11.75;3.53;;;5.00;93.40;;;;;;4876297;29;20129;-92
2021/03/16 20:10:09;;;;;;;7.03;2.58;;;4.90;93.40;;;;;;4870918;29;20090;-94
2021/03/16 20:16:00;;;;;;;10.57;3.25;;;4.90;93.30;;;;;;4872833;29;20028;-90
2021/03/16 20:21:49;;;;;;;3.53;1.40;;;4.80;93.50;;;;;;4871048;29;20089;-90
2021/03/16 20:27:38;;;;;;;11.15;4.13;;;4.70;93.30;;;;;;4878596;29;20042;-93
2021/03/16 20:33:27;;;;;;;12.45;3.22;;;4.60;93.20;;;;;;4873925;29;20107;-93
2021/03/16 20:39:16;;;;;;;9.40;3.50;;;4.50;93.30;;;;;;4874025;29;20044;-93
2021/03/16 20:45:10;;;;;;;11.23;2.58;;;4.50;93.50;;;;;;4872719;29;20058;-92
2021/03/16 20:51:04;;;;;;;8.88;2.80;;;4.60;93.50;;;;;;4874717;29;20062;-93
2021/03/16 21:00:54;;;;;;;16.20;4.80;;;4.50;93.50;;;;;;4867552;29;20052;-96
2021/03/16 21:06:43;;;;;;;14.93;4.93;;;4.50;93.60;;;;;;4869951;29;20132;-95
2021/03/16 21:12:32;;;;;;;14.85;4.75;;;4.60;93.70;;;;;;4870991;29;20410;-88
2021/03/16 21:18:20;;;;;;;10.68;4.45;;;4.60;93.60;;;;;;4871960;29;20104;-92
2021/03/16 21:24:10;;;;;;;13.70;5.00;;;4.60;93.60;;;;;;4870790;29;20102;-94
2021/03/16 21:29:58;;;;;;;14.88;5.70;;;4.50;93.50;;;;;;4865542;29;20032;-94
2021/03/16 21:35:48;;;;;;;27.98;8.45;;;4.50;93.50;;;;;;4864264;29;20041;-94
2021/03/16 21:41:37;;;;;;;21.45;6.35;;;4.50;93.70;;;;;;4871730;29;20040;-92
2021/03/16 21:47:27;;;;;;;4.05;2.03;;;4.50;93.50;;;;;;4873005;29;20058;-94
2021/03/16 21:53:15;;;;;;;16.33;4.80;;;4.50;93.60;;;;;;4870837;29;20040;-95
2021/03/16 22:02:59;;;;;;;16.60;4.25;;;4.50;93.50;;;;;;4883419;29;20070;-95
2021/03/16 22:08:48;;;;;;;6.10;2.60;;;4.40;93.60;;;;;;4868681;29;20072;-95
2021/03/16 22:14:41;;;;;;;6.53;2.78;;;4.20;92.90;;;;;;4872164;29;20036;-96
2021/03/16 22:20:29;;;;;;;8.80;2.72;;;3.70;92.70;;;;;;4863186;29;20081;-90
2021/03/16 22:26:18;;;;;;;12.65;3.47;;;3.50;93.00;;;;;;4863019;29;20045;-93
2021/03/16 22:32:06;;;;;;;12.93;3.78;;;3.40;93.40;;;;;;4862857;29;20038;-95
2021/03/16 22:37:55;;;;;;;12.23;3.33;;;3.60;93.60;;;;;;4863182;29;20403;-95
2021/03/16 22:43:43;;;;;;;8.85;3.17;;;3.60;93.70;;;;;;4863139;29;20040;-94
2021/03/16 22:49:33;;;;;;;17.67;5.10;;;3.80;93.90;;;;;;4862399;29;20037;-93
2021/03/16 22:55:21;;;;;;;14.07;5.07;;;3.90;93.60;;;;;;4862675;29;20546;-93
2021/03/16 23:05:06;;;;;;;15.18;5.00;;;3.90;93.70;;;;;;4862108;29;20040;-90
2021/03/16 23:10:54;;;;;;;11.23;4.38;;;3.80;93.40;;;;;;4861891;29;20487;-90
2021/03/16 23:16:43;;;;;;;11.38;3.90;;;3.90;93.80;;;;;;4861589;29;20102;-89
2021/03/16 23:22:31;;;;;;;10.88;3.85;;;3.80;93.50;;;;;;4861631;29;20105;-90
2021/03/16 23:28:21;;;;;;;11.90;4.22;;;3.90;93.60;;;;;;4861528;29;20062;-89
2021/03/16 23:34:10;;;;;;;12.65;4.47;;;3.90;93.70;;;;;;4861593;29;20033;-89
2021/03/16 23:39:58;;;;;;;17.77;4.88;;;3.90;93.70;;;;;;4861795;29;20090;-91
2021/03/16 23:45:47;;;;;;;16.13;5.43;;;4.00;93.80;;;;;;4862451;29;20100;-94
2021/03/16 23:51:35;;;;;;;12.55;3.85;;;3.90;93.60;;;;;;4865793;29;20044;-94
2021/03/16 23:57:26;;;;;;;9.27;3.05;;;3.80;93.60;;;;;;4865183;29;20093;-94
